Impacts METAR Board
IDs:

KPHL - Philadelphia Intl, PA, US

Updated at: 0600 UTC 22 Oct 2018
Potential Impact None Slight Moderate High
Time 21/18Z 21/19Z 21/20Z 21/21Z 21/22Z 21/23Z 22/00Z 22/01Z 22/02Z 22/03Z 22/04Z 22/05Z 22/06Z
Temp48 50 50 50 48 47 46 44 44 43 40 40 39
Dewpt26 23 21 23 23 24 26 26 24 25 26 27 28
Altim30.04 30.05 30.06 30.07 30.10 30.13 30.17 30.19 30.20 30.22 30.22 30.24 30.25
VIS10 10 10 10 10 10 10 10 10 10 10 10 10
CIG-- -- -- -- -- -- -- -- -- -- -- -- --
CoverSCTSCTSCTFEWFEWFEWCLRCLRCLRCLRCLRCLRFEW
FltCatVFRVFRVFRVFRVFRVFRVFRVFRVFRVFRVFRVFRVFR
WX--------------------------
WDir3203303203103103203003203103100260260
WSpd13 20 21 12 16 10 8 11 10 6 0 4 7
WGst22 25 28 21 24 -- -- -- -- -- -- -- --
Raw hourly METARs
KPHL 211754Z 32013G22KT 10SM SCT049 09/M03 A3004 RMK AO2 PK WND 31026/1657 SLP172 60000 T00891033 10094 20072 50007
KPHL 211854Z 33020G25KT 10SM SCT050 10/M05 A3005 RMK AO2 PK WND 34028/1830 SLP175 T01001050
KPHL 211954Z 32021G28KT 10SM SCT050 10/M06 A3006 RMK AO2 PK WND 32029/1935 SLP178 T01001061
KPHL 212054Z 31012G21KT 10SM FEW050 10/M05 A3007 RMK AO2 PK WND 33028/1959 SLP183 T01001050 53011
KPHL 212154Z 31016G24KT 10SM FEW050 09/M05 A3010 RMK AO2 SLP191 T00891050
KPHL 212254Z 32010KT 10SM FEW050 08/M04 A3013 RMK AO2 SLP201 T00831044
KPHL 212354Z 30008KT 10SM CLR 08/M03 A3017 RMK AO2 SLP215 T00781033 10106 20078 53032
KPHL 220054Z 32011KT 10SM CLR 07/M03 A3019 RMK AO2 SLP223 T00671033
KPHL 220154Z 31010KT 10SM CLR 07/M04 A3020 RMK AO2 SLP227 T00671044
KPHL 220254Z 31006KT 10SM CLR 06/M04 A3022 RMK AO2 SLP232 T00611039 51017
KPHL 220354Z 00000KT 10SM CLR 04/M03 A3022 RMK AO2 SLP234 T00441033
KPHL 220454Z 26004KT 10SM CLR 04/M03 A3024 RMK AO2 SLP239 T00441028 401060039
KPHL 220554Z 26007KT 10SM FEW050 04/M02 A3025 RMK AO2 SLP242 T00391022 10078 20033 53010



Page loaded:  06:27 UTC  |   11:27 PM Pacific  |   12:27 AM Mountain  |   01:27 AM Central  |   02:27 AM Eastern

 

ADVISORIES

FORECASTS

FORECASTS

OBSERVATIONS

USER TOOLS

ABOUT US